PRIVATE WETTERSTATION BILLIGHEIM-ALLFELD                       ZURCK
Wetterdaten: Samstag, 05.02.2022
Datum Zeit Temp. A. Temp. A. min Temp. A. max Feuchte A. Luftdruck Regen Wind Richtung Richtung Sonnenschein ET Solar Taupunkt Windchill Windben Empfang
05.02.2022 00:00 3,5 C 3,5 C 3,8 C 84 % 1016,5 hPa 0,0 l/m 11,3 km/h (2 Bft) W-NW 292 0 min 0,025 mm 0 W/m 1,1 C -0,5 C 25,7 km/h (4 Bft) 97 %
05.02.2022 00:10 3,1 C 3,1 C 3,4 C 83 % 1016,8 hPa 0,0 l/m 12,9 km/h (3 Bft) NW 315 0 min 0,000 mm 0 W/m 0,5 C -2,0 C 25,7 km/h (4 Bft) 97 %
05.02.2022 00:20 2,8 C 2,8 C 3,1 C 82 % 1017,1 hPa 0,0 l/m 9,7 km/h (2 Bft) W-NW 292 0 min 0,000 mm 0 W/m 0,0 C -0,1 C 27,4 km/h (4 Bft) 98 %
05.02.2022 00:30 2,6 C 2,6 C 2,8 C 83 % 1017,3 hPa 0,0 l/m 6,4 km/h (2 Bft) W-NW 292 0 min 0,000 mm 0 W/m 0,0 C 2,6 C 16,1 km/h (3 Bft) 98 %
05.02.2022 00:40 2,5 C 2,5 C 2,6 C 83 % 1017,5 hPa 0,0 l/m 6,4 km/h (2 Bft) W 270 0 min 0,000 mm 0 W/m -0,1 C 2,5 C 16,1 km/h (3 Bft) 98 %
05.02.2022 00:50 2,3 C 2,3 C 2,5 C 84 % 1017,7 hPa 0,0 l/m 6,4 km/h (2 Bft) W-NW 292 0 min 0,000 mm 0 W/m -0,1 C 2,3 C 17,7 km/h (3 Bft) 98 %
05.02.2022 01:00 2,2 C 2,2 C 2,3 C 84 % 1017,7 hPa 0,0 l/m 6,4 km/h (2 Bft) W-NW 292 0 min 0,025 mm 0 W/m -0,2 C 2,2 C 12,9 km/h (3 Bft) 98 %
05.02.2022 01:10 2,1 C 2,1 C 2,2 C 84 % 1018,0 hPa 0,0 l/m 6,4 km/h (2 Bft) W 270 0 min 0,000 mm 0 W/m -0,3 C 2,1 C 17,7 km/h (3 Bft) 98 %
05.02.2022 01:20 2,1 C 2,1 C 2,1 C 84 % 1018,0 hPa 0,0 l/m 8,0 km/h (2 Bft) W 270 0 min 0,000 mm 0 W/m -0,3 C 0,6 C 17,7 km/h (3 Bft) 98 %
05.02.2022 01:30 2,0 C 2,0 C 2,1 C 84 % 1018,3 hPa 0,0 l/m 8,0 km/h (2 Bft) W-NW 292 0 min 0,000 mm 0 W/m -0,4 C 0,5 C 20,9 km/h (4 Bft) 86 %
05.02.2022 01:40 1,9 C 1,9 C 2,1 C 84 % 1018,4 hPa 0,0 l/m 6,4 km/h (2 Bft) W 270 0 min 0,000 mm 0 W/m -0,5 C 1,9 C 16,1 km/h (3 Bft) 98 %
05.02.2022 01:50 1,8 C 1,8 C 1,9 C 85 % 1018,6 hPa 0,0 l/m 4,8 km/h (1 Bft) W-SW 247 0 min 0,000 mm 0 W/m -0,4 C 1,8 C 14,5 km/h (3 Bft) 98 %
05.02.2022 02:00 1,7 C 1,7 C 1,8 C 85 % 1018,8 hPa 0,0 l/m 4,8 km/h (1 Bft) W-SW 247 0 min 0,025 mm 0 W/m -0,5 C 1,7 C 9,7 km/h (2 Bft) 98 %
05.02.2022 02:10 1,7 C 1,7 C 1,7 C 85 % 1018,9 hPa 0,0 l/m 4,8 km/h (1 Bft) SW 225 0 min 0,000 mm 0 W/m -0,5 C 1,7 C 11,3 km/h (2 Bft) 97 %
05.02.2022 02:20 1,6 C 1,6 C 1,7 C 85 % 1018,9 hPa 0,0 l/m 4,8 km/h (1 Bft) W-SW 247 0 min 0,000 mm 0 W/m -0,6 C 1,6 C 16,1 km/h (3 Bft) 97 %
05.02.2022 02:30 1,4 C 1,4 C 1,6 C 86 % 1019,1 hPa 0,0 l/m 4,8 km/h (1 Bft) SW 225 0 min 0,000 mm 0 W/m -0,7 C 1,4 C 14,5 km/h (3 Bft) 98 %
05.02.2022 02:40 1,4 C 1,4 C 1,4 C 86 % 1019,3 hPa 0,0 l/m 6,4 km/h (2 Bft) SW 225 0 min 0,000 mm 0 W/m -0,7 C 1,4 C 16,1 km/h (3 Bft) 97 %
05.02.2022 02:50 1,4 C 1,4 C 1,4 C 86 % 1019,4 hPa 0,0 l/m 6,4 km/h (2 Bft) W-SW 247 0 min 0,000 mm 0 W/m -0,7 C 1,4 C 17,7 km/h (3 Bft) 87 %
05.02.2022 03:00 1,5 C 1,4 C 1,5 C 86 % 1019,4 hPa 0,0 l/m 9,7 km/h (2 Bft) W-SW 247 0 min 0,000 mm 0 W/m -0,6 C -1,6 C 20,9 km/h (4 Bft) 98 %
05.02.2022 03:10 1,4 C 1,4 C 1,5 C 86 % 1019,6 hPa 0,0 l/m 6,4 km/h (2 Bft) W-SW 247 0 min 0,000 mm 0 W/m -0,7 C 1,4 C 17,7 km/h (3 Bft) 98 %
05.02.2022 03:20 1,4 C 1,4 C 1,4 C 86 % 1019,6 hPa 0,0 l/m 6,4 km/h (2 Bft) SW 225 0 min 0,000 mm 0 W/m -0,7 C 1,4 C 19,3 km/h (3 Bft) 98 %
05.02.2022 03:30 1,3 C 1,3 C 1,4 C 87 % 1019,6 hPa 0,0 l/m 8,0 km/h (2 Bft) SW 225 0 min 0,000 mm 0 W/m -0,6 C -0,3 C 20,9 km/h (4 Bft) 97 %
05.02.2022 03:40 1,2 C 1,2 C 1,3 C 87 % 1019,8 hPa 0,0 l/m 11,3 km/h (2 Bft) SW 225 0 min 0,000 mm 0 W/m -0,7 C -3,1 C 24,1 km/h (4 Bft) 96 %
05.02.2022 03:50 1,3 C 1,2 C 1,3 C 87 % 1020,0 hPa 0,0 l/m 8,0 km/h (2 Bft) W-SW 247 0 min 0,000 mm 0 W/m -0,6 C -0,3 C 22,5 km/h (4 Bft) 97 %
05.02.2022 04:00 1,3 C 1,3 C 1,3 C 87 % 1020,1 hPa 0,0 l/m 8,0 km/h (2 Bft) W-SW 247 0 min 0,000 mm 0 W/m -0,6 C -0,3 C 16,1 km/h (3 Bft) 98 %
05.02.2022 04:10 1,3 C 1,3 C 1,3 C 87 % 1020,2 hPa 0,0 l/m 6,4 km/h (2 Bft) W-SW 247 0 min 0,000 mm 0 W/m -0,6 C 1,3 C 16,1 km/h (3 Bft) 97 %
05.02.2022 04:20 1,3 C 1,3 C 1,3 C 87 % 1020,3 hPa 0,0 l/m 4,8 km/h (1 Bft) W-SW 247 0 min 0,000 mm 0 W/m -0,6 C 1,3 C 11,3 km/h (2 Bft) 88 %
05.02.2022 04:30 1,2 C 1,2 C 1,3 C 87 % 1020,4 hPa 0,0 l/m 4,8 km/h (1 Bft) W-SW 247 0 min 0,000 mm 0 W/m -0,7 C 1,2 C 11,3 km/h (2 Bft) 97 %
05.02.2022 04:40 1,1 C 1,1 C 1,2 C 88 % 1020,6 hPa 0,0 l/m 8,0 km/h (2 Bft) SW 225 0 min 0,000 mm 0 W/m -0,7 C -0,5 C 14,5 km/h (3 Bft) 97 %
05.02.2022 04:50 0,9 C 0,9 C 1,1 C 88 % 1020,7 hPa 0,0 l/m 8,0 km/h (2 Bft) SW 225 0 min 0,000 mm 0 W/m -0,9 C -0,7 C 16,1 km/h (3 Bft) 98 %
05.02.2022 05:00 0,8 C 0,8 C 0,9 C 89 % 1020,8 hPa 0,0 l/m 6,4 km/h (2 Bft) SW 225 0 min 0,000 mm 0 W/m -0,8 C 0,8 C 16,1 km/h (3 Bft) 97 %
05.02.2022 05:10 0,7 C 0,7 C 0,8 C 89 % 1021,0 hPa 0,0 l/m 6,4 km/h (2 Bft) S-SW 202 0 min 0,000 mm 0 W/m -0,9 C 0,7 C 11,3 km/h (2 Bft) 98 %
05.02.2022 05:20 0,7 C 0,7 C 0,7 C 90 % 1021,1 hPa 0,0 l/m 8,0 km/h (2 Bft) SW 225 0 min 0,000 mm 0 W/m -0,7 C -0,9 C 16,1 km/h (3 Bft) 97 %
05.02.2022 05:30 0,7 C 0,7 C 0,7 C 90 % 1021,3 hPa 0,0 l/m 6,4 km/h (2 Bft) SW 225 0 min 0,000 mm 0 W/m -0,7 C 0,7 C 14,5 km/h (3 Bft) 98 %
05.02.2022 05:40 0,8 C 0,7 C 0,8 C 90 % 1021,4 hPa 0,0 l/m 8,0 km/h (2 Bft) SW 225 0 min 0,000 mm 0 W/m -0,6 C -0,8 C 17,7 km/h (3 Bft) 98 %
05.02.2022 05:50 0,9 C 0,8 C 0,9 C 90 % 1021,4 hPa 0,0 l/m 9,7 km/h (2 Bft) SW 225 0 min 0,000 mm 0 W/m -0,6 C -2,2 C 19,3 km/h (3 Bft) 97 %
05.02.2022 06:00 0,9 C 0,9 C 0,9 C 90 % 1021,4 hPa 0,0 l/m 11,3 km/h (2 Bft) SW 225 0 min 0,000 mm 0 W/m -0,6 C -3,5 C 22,5 km/h (4 Bft) 98 %
05.02.2022 06:10 1,0 C 0,9 C 1,0 C 90 % 1021,4 hPa 0,0 l/m 11,3 km/h (2 Bft) SW 225 0 min 0,000 mm 0 W/m -0,5 C -3,3 C 20,9 km/h (4 Bft) 97 %
05.02.2022 06:20 0,9 C 0,9 C 1,0 C 91 % 1021,5 hPa 0,0 l/m 9,7 km/h (2 Bft) SW 225 0 min 0,000 mm 0 W/m -0,4 C -2,2 C 22,5 km/h (4 Bft) 98 %
05.02.2022 06:30 0,9 C 0,9 C 0,9 C 91 % 1021,6 hPa 0,0 l/m 6,4 km/h (2 Bft) SW 225 0 min 0,000 mm 0 W/m -0,4 C 0,9 C 16,1 km/h (3 Bft) 97 %
05.02.2022 06:40 0,9 C 0,9 C 0,9 C 91 % 1021,7 hPa 0,0 l/m 6,4 km/h (2 Bft) SW 225 0 min 0,000 mm 0 W/m -0,4 C 0,9 C 16,1 km/h (3 Bft) 98 %
05.02.2022 06:50 1,0 C 0,9 C 1,0 C 91 % 1021,7 hPa 0,0 l/m 8,0 km/h (2 Bft) S-SW 202 0 min 0,000 mm 0 W/m -0,3 C -0,6 C 20,9 km/h (4 Bft) 98 %
05.02.2022 07:00 1,1 C 1,0 C 1,1 C 91 % 1021,9 hPa 0,0 l/m 6,4 km/h (2 Bft) SW 225 0 min 0,000 mm 0 W/m -0,2 C 1,1 C 14,5 km/h (3 Bft) 97 %
05.02.2022 07:10 1,1 C 1,0 C 1,1 C 91 % 1021,8 hPa 0,0 l/m 8,0 km/h (2 Bft) SW 225 0 min 0,000 mm 0 W/m -0,2 C -0,5 C 17,7 km/h (3 Bft) 98 %
05.02.2022 07:20 1,2 C 1,1 C 1,2 C 91 % 1022,0 hPa 0,0 l/m 8,0 km/h (2 Bft) SW 225 0 min 0,000 mm 0 W/m -0,1 C -0,4 C 20,9 km/h (4 Bft) 97 %
05.02.2022 07:30 1,2 C 1,2 C 1,2 C 91 % 1022,0 hPa 0,0 l/m 9,7 km/h (2 Bft) SW 225 0 min 0,000 mm 0 W/m -0,1 C -1,9 C 19,3 km/h (3 Bft) 98 %
05.02.2022 07:40 1,1 C 1,1 C 1,2 C 91 % 1022,1 hPa 0,0 l/m 9,7 km/h (2 Bft) S-SW 202 0 min 0,000 mm 0 W/m -0,2 C -2,0 C 19,3 km/h (3 Bft) 97 %
05.02.2022 07:50 1,1 C 1,0 C 1,1 C 91 % 1022,2 hPa 0,0 l/m 11,3 km/h (2 Bft) SW 225 0 min 0,000 mm 0 W/m -0,2 C -3,2 C 24,1 km/h (4 Bft) 98 %
05.02.2022 08:00 1,1 C 1,0 C 1,1 C 92 % 1022,4 hPa 0,0 l/m 12,9 km/h (3 Bft) SW 225 0 min 0,000 mm 7 W/m -0,1 C -4,3 C 20,9 km/h (4 Bft) 98 %
05.02.2022 08:10 1,2 C 1,1 C 1,2 C 92 % 1022,6 hPa 0,0 l/m 11,3 km/h (2 Bft) SW 225 0 min 0,000 mm 9 W/m 0,0 C -3,1 C 19,3 km/h (3 Bft) 97 %
05.02.2022 08:20 1,2 C 1,2 C 1,2 C 91 % 1022,7 hPa 0,0 l/m 9,7 km/h (2 Bft) SW 225 0 min 0,000 mm 18 W/m -0,1 C -1,9 C 22,5 km/h (4 Bft) 98 %
05.02.2022 08:30 1,2 C 1,2 C 1,2 C 91 % 1022,7 hPa 0,0 l/m 9,7 km/h (2 Bft) SW 225 0 min 0,000 mm 25 W/m -0,1 C -1,9 C 22,5 km/h (4 Bft) 96 %
05.02.2022 08:40 1,3 C 1,2 C 1,3 C 91 % 1022,8 hPa 0,0 l/m 11,3 km/h (2 Bft) SW 225 0 min 0,000 mm 39 W/m -0,0 C -3,0 C 22,5 km/h (4 Bft) 89 %
05.02.2022 08:50 1,3 C 1,3 C 1,3 C 91 % 1022,9 hPa 0,0 l/m 8,0 km/h (2 Bft) SW 225 0 min 0,000 mm 39 W/m -0,0 C -0,3 C 19,3 km/h (3 Bft) 98 %
05.02.2022 09:00 1,3 C 1,3 C 1,3 C 91 % 1023,0 hPa 0,0 l/m 9,7 km/h (2 Bft) SW 225 0 min 0,025 mm 62 W/m -0,0 C -1,8 C 20,9 km/h (4 Bft) 100 %
05.02.2022 09:10 1,4 C 1,3 C 1,4 C 91 % 1023,1 hPa 0,0 l/m 11,3 km/h (2 Bft) SW 225 0 min 0,000 mm 70 W/m 0,1 C -2,9 C 27,4 km/h (4 Bft) 99 %
05.02.2022 09:20 1,4 C 1,4 C 1,4 C 91 % 1023,1 hPa 0,0 l/m 11,3 km/h (2 Bft) SW 225 0 min 0,000 mm 95 W/m 0,1 C -2,9 C 25,7 km/h (4 Bft) 99 %
05.02.2022 09:30 1,6 C 1,4 C 1,6 C 90 % 1023,3 hPa 0,0 l/m 9,7 km/h (2 Bft) SW 225 0 min 0,000 mm 84 W/m 0,1 C -1,4 C 24,1 km/h (4 Bft) 100 %
05.02.2022 09:40 1,8 C 1,6 C 1,8 C 90 % 1023,3 hPa 0,0 l/m 12,9 km/h (3 Bft) SW 225 10 min 0,000 mm 162 W/m 0,3 C -3,5 C 22,5 km/h (4 Bft) 100 %
05.02.2022 09:50 1,8 C 1,8 C 1,9 C 89 % 1023,4 hPa 0,0 l/m 12,9 km/h (3 Bft) SW 225 0 min 0,000 mm 151 W/m 0,2 C -3,5 C 24,1 km/h (4 Bft) 100 %
05.02.2022 10:00 1,9 C 1,8 C 1,9 C 90 % 1023,4 hPa 0,0 l/m 8,0 km/h (2 Bft) SW 225 10 min 0,025 mm 172 W/m 0,4 C 0,3 C 20,9 km/h (4 Bft) 100 %
05.02.2022 10:10 2,0 C 1,9 C 2,0 C 89 % 1023,4 hPa 0,0 l/m 9,7 km/h (2 Bft) W-SW 247 0 min 0,000 mm 148 W/m 0,4 C -1,0 C 19,3 km/h (3 Bft) 100 %
05.02.2022 10:20 2,2 C 2,0 C 2,2 C 89 % 1023,4 hPa 0,0 l/m 4,8 km/h (1 Bft) SW 225 0 min 0,000 mm 130 W/m 0,6 C 2,2 C 17,7 km/h (3 Bft) 100 %
05.02.2022 10:30 2,5 C 2,2 C 2,5 C 88 % 1023,6 hPa 0,0 l/m 9,7 km/h (2 Bft) SW 225 10 min 0,000 mm 323 W/m 0,7 C -0,5 C 27,4 km/h (4 Bft) 100 %
05.02.2022 10:40 2,8 C 2,6 C 2,9 C 87 % 1023,7 hPa 0,0 l/m 9,7 km/h (2 Bft) SW 225 10 min 0,000 mm 355 W/m 0,9 C -0,1 C 22,5 km/h (4 Bft) 100 %
05.02.2022 10:50 2,9 C 2,8 C 2,9 C 87 % 1023,7 hPa 0,0 l/m 4,8 km/h (1 Bft) W-SW 247 0 min 0,000 mm 130 W/m 1,0 C 2,9 C 16,1 km/h (3 Bft) 100 %
05.02.2022 11:00 3,3 C 2,9 C 3,3 C 87 % 1023,9 hPa 0,0 l/m 3,2 km/h (1 Bft) SW 225 10 min 0,051 mm 403 W/m 1,3 C 3,3 C 11,3 km/h (2 Bft) 100 %
05.02.2022 11:10 3,3 C 3,3 C 3,3 C 86 % 1023,8 hPa 0,0 l/m 4,8 km/h (1 Bft) W-SW 247 10 min 0,000 mm 237 W/m 1,2 C 3,3 C 14,5 km/h (3 Bft) 100 %
05.02.2022 11:20 3,5 C 3,3 C 3,5 C 85 % 1024,0 hPa 0,0 l/m 8,0 km/h (2 Bft) W-SW 247 10 min 0,000 mm 406 W/m 1,2 C 2,0 C 22,5 km/h (4 Bft) 100 %
05.02.2022 11:30 4,1 C 3,5 C 4,1 C 84 % 1024,0 hPa 0,0 l/m 6,4 km/h (2 Bft) W 270 10 min 0,000 mm 499 W/m 1,6 C 4,1 C 20,9 km/h (4 Bft) 100 %
05.02.2022 11:40 4,1 C 4,1 C 4,1 C 83 % 1024,0 hPa 0,0 l/m 12,9 km/h (3 Bft) SW 225 10 min 0,000 mm 214 W/m 1,5 C -0,8 C 25,7 km/h (4 Bft) 99 %
05.02.2022 11:50 4,1 C 4,1 C 4,2 C 83 % 1024,1 hPa 0,0 l/m 11,3 km/h (2 Bft) W-SW 247 10 min 0,000 mm 526 W/m 1,5 C 0,2 C 22,5 km/h (4 Bft) 100 %
05.02.2022 12:00 4,1 C 4,0 C 4,1 C 82 % 1024,1 hPa 0,0 l/m 11,3 km/h (2 Bft) W-SW 247 10 min 0,102 mm 512 W/m 1,3 C 0,2 C 24,1 km/h (4 Bft) 100 %
05.02.2022 12:10 4,2 C 4,1 C 4,2 C 82 % 1024,0 hPa 0,0 l/m 11,3 km/h (2 Bft) W-SW 247 10 min 0,000 mm 243 W/m 1,4 C 0,3 C 24,1 km/h (4 Bft) 100 %
05.02.2022 12:30 4,1 C 4,1 C 4,2 C 82 % 1023,9 hPa 0,0 l/m 10,5 km/h (2 Bft) SW 217 20 min 0,000 mm 225 W/m 1,3 C 0,7 C 24,1 km/h (4 Bft) 92 %
05.02.2022 12:40 4,2 C 4,1 C 4,2 C 82 % 1023,9 hPa 0,0 l/m 9,5 km/h (2 Bft) W-SW 257 10 min 0,000 mm 211 W/m 1,4 C 1,6 C 25,7 km/h (4 Bft) 97 %
05.02.2022 12:50 4,2 C 4,2 C 4,2 C 82 % 1023,9 hPa 0,0 l/m 8,8 km/h (2 Bft) W-SW 244 0 min 0,000 mm 149 W/m 1,4 C 2,1 C 22,5 km/h (4 Bft) 97 %
05.02.2022 13:00 4,3 C 4,2 C 4,3 C 82 % 1024,0 hPa 0,0 l/m 7,9 km/h (2 Bft) W-NW 288 10 min 0,000 mm 162 W/m 1,5 C 3,0 C 22,5 km/h (4 Bft) 98 %
05.02.2022 13:10 4,4 C 4,3 C 4,5 C 82 % 1023,9 hPa 0,0 l/m 4,7 km/h (1 Bft) SW 236 0 min 0,078 mm 98 W/m 1,6 C 4,4 C 16,1 km/h (3 Bft) 97 %
05.02.2022 13:20 4,4 C 4,4 C 4,5 C 81 % 1023,8 hPa 0,0 l/m 9,1 km/h (2 Bft) W 271 10 min 0,000 mm 165 W/m 1,4 C 2,1 C 25,7 km/h (4 Bft) 98 %
05.02.2022 13:30 4,6 C 4,4 C 4,6 C 82 % 1023,7 hPa 0,0 l/m 6,0 km/h (2 Bft) SW 223 10 min 0,000 mm 213 W/m 1,8 C 4,6 C 20,9 km/h (4 Bft) 88 %
05.02.2022 13:40 4,7 C 4,6 C 4,7 C 81 % 1023,7 hPa 0,0 l/m 7,5 km/h (2 Bft) SW 235 10 min 0,000 mm 156 W/m 1,7 C 3,7 C 19,3 km/h (3 Bft) 98 %
05.02.2022 13:50 4,8 C 4,7 C 4,8 C 81 % 1023,6 hPa 0,0 l/m 9,6 km/h (2 Bft) SW 233 10 min 0,000 mm 179 W/m 1,8 C 2,1 C 24,1 km/h (4 Bft) 98 %
05.02.2022 14:00 5,0 C 4,8 C 5,0 C 79 % 1023,6 hPa 0,0 l/m 12,7 km/h (3 Bft) W 264 0 min 0,076 mm 128 W/m 1,7 C 0,3 C 32,2 km/h (5 Bft) 97 %
05.02.2022 14:10 5,2 C 5,0 C 5,2 C 79 % 1023,4 hPa 0,0 l/m 12,0 km/h (2 Bft) W 267 10 min 0,000 mm 251 W/m 1,9 C 1,0 C 29,0 km/h (5 Bft) 98 %
05.02.2022 14:20 5,8 C 5,2 C 5,8 C 78 % 1023,3 hPa 0,0 l/m 8,2 km/h (2 Bft) W-SW 246 10 min 0,000 mm 420 W/m 2,3 C 4,3 C 25,7 km/h (4 Bft) 97 %
05.02.2022 14:30 6,4 C 5,8 C 6,4 C 76 % 1023,2 hPa 0,0 l/m 6,9 km/h (2 Bft) W-SW 258 10 min 0,000 mm 385 W/m 2,5 C 6,0 C 25,7 km/h (4 Bft) 97 %
05.02.2022 14:40 6,4 C 6,4 C 6,6 C 74 % 1023,1 hPa 0,0 l/m 12,0 km/h (2 Bft) SW 236 0 min 0,000 mm 151 W/m 2,1 C 2,4 C 29,0 km/h (5 Bft) 97 %
05.02.2022 14:50 6,5 C 6,3 C 6,5 C 74 % 1023,0 hPa 0,0 l/m 10,9 km/h (2 Bft) W-SW 240 10 min 0,000 mm 299 W/m 2,2 C 3,1 C 25,7 km/h (4 Bft) 97 %
05.02.2022 15:00 6,7 C 6,5 C 6,7 C 73 % 1023,0 hPa 0,0 l/m 9,3 km/h (2 Bft) S-SW 194 10 min 0,000 mm 200 W/m 2,2 C 4,4 C 24,1 km/h (4 Bft) 98 %
05.02.2022 15:10 6,8 C 6,7 C 6,8 C 74 % 1022,9 hPa 0,0 l/m 8,6 km/h (2 Bft) W-SW 254 0 min 0,152 mm 132 W/m 2,5 C 5,0 C 30,6 km/h (5 Bft) 97 %
05.02.2022 15:20 6,3 C 6,3 C 6,8 C 74 % 1022,8 hPa 0,0 l/m 8,4 km/h (2 Bft) SW 233 0 min 0,000 mm 107 W/m 2,0 C 4,7 C 25,7 km/h (4 Bft) 98 %
05.02.2022 15:30 6,0 C 6,0 C 6,3 C 76 % 1022,8 hPa 0,0 l/m 9,5 km/h (2 Bft) SW 223 0 min 0,000 mm 98 W/m 2,1 C 3,5 C 27,4 km/h (4 Bft) 97 %
05.02.2022 15:40 5,9 C 5,9 C 6,0 C 75 % 1022,7 hPa 0,0 l/m 7,6 km/h (2 Bft) W-SW 245 0 min 0,000 mm 63 W/m 1,8 C 4,9 C 24,1 km/h (4 Bft) 97 %
05.02.2022 15:50 5,8 C 5,8 C 5,9 C 75 % 1022,7 hPa 0,0 l/m 8,0 km/h (2 Bft) SW 230 0 min 0,000 mm 56 W/m 1,7 C 4,4 C 20,9 km/h (4 Bft) 97 %
05.02.2022 16:00 5,7 C 5,7 C 5,8 C 75 % 1022,8 hPa 0,0 l/m 8,8 km/h (2 Bft) W-SW 252 0 min 0,000 mm 35 W/m 1,6 C 3,7 C 29,0 km/h (5 Bft) 97 %
05.02.2022 16:10 5,7 C 5,7 C 5,7 C 75 % 1022,9 hPa 0,0 l/m 5,5 km/h (1 Bft) SW 236 0 min 0,051 mm 54 W/m 1,6 C 5,7 C 19,3 km/h (3 Bft) 97 %
05.02.2022 16:20 5,7 C 5,7 C 5,7 C 75 % 1022,8 hPa 0,0 l/m 7,6 km/h (2 Bft) SW 231 0 min 0,000 mm 39 W/m 1,6 C 4,7 C 27,4 km/h (4 Bft) 97 %
05.02.2022 16:30 5,7 C 5,7 C 5,7 C 75 % 1022,6 hPa 0,0 l/m 11,7 km/h (2 Bft) SW 216 0 min 0,000 mm 19 W/m 1,6 C 1,7 C 35,4 km/h (5 Bft) 97 %
05.02.2022 16:40 5,6 C 5,6 C 5,7 C 75 % 1022,8 hPa 0,0 l/m 12,0 km/h (2 Bft) W 259 0 min 0,000 mm 11 W/m 1,5 C 1,4 C 30,6 km/h (5 Bft) 97 %
05.02.2022 16:50 5,5 C 5,5 C 5,6 C 76 % 1023,1 hPa 0,0 l/m 7,1 km/h (2 Bft) W-SW 248 0 min 0,000 mm 0 W/m 1,6 C 4,9 C 20,9 km/h (4 Bft) 97 %
05.02.2022 17:00 5,3 C 5,3 C 5,5 C 79 % 1023,1 hPa 0,0 l/m 8,5 km/h (2 Bft) W 259 0 min 0,025 mm 12 W/m 2,0 C 3,5 C 24,1 km/h (4 Bft) 98 %
05.02.2022 17:10 5,1 C 5,1 C 5,3 C 80 % 1023,1 hPa 0,0 l/m 8,1 km/h (2 Bft) W-SW 254 0 min 0,000 mm 7 W/m 1,9 C 3,6 C 20,9 km/h (4 Bft) 98 %
05.02.2022 17:20 4,9 C 4,9 C 5,1 C 81 % 1023,1 hPa 0,0 l/m 8,1 km/h (2 Bft) W-SW 255 0 min 0,000 mm 5 W/m 1,9 C 3,4 C 22,5 km/h (4 Bft) 97 %
05.02.2022 17:30 4,8 C 4,8 C 4,9 C 81 % 1022,9 hPa 0,0 l/m 8,2 km/h (2 Bft) S-SW 207 0 min 0,000 mm 0 W/m 1,8 C 3,2 C 24,1 km/h (4 Bft) 97 %
05.02.2022 17:40 4,8 C 4,8 C 4,8 C 81 % 1023,1 hPa 0,0 l/m 10,8 km/h (2 Bft) W 263 0 min 0,000 mm 0 W/m 1,8 C 1,3 C 30,6 km/h (5 Bft) 98 %
05.02.2022 17:50 4,6 C 4,6 C 4,8 C 82 % 1023,3 hPa 0,0 l/m 10,6 km/h (2 Bft) W-SW 252 0 min 0,000 mm 0 W/m 1,8 C 1,2 C 24,1 km/h (4 Bft) 97 %
05.02.2022 18:00 4,5 C 4,5 C 4,7 C 82 % 1023,2 hPa 0,0 l/m 7,8 km/h (2 Bft) W-SW 240 0 min 0,026 mm 0 W/m 1,7 C 3,2 C 22,5 km/h (4 Bft) 96 %
05.02.2022 18:10 4,3 C 4,3 C 4,5 C 83 % 1023,2 hPa 0,0 l/m 4,4 km/h (1 Bft) SW 227 0 min 0,000 mm 0 W/m 1,7 C 4,3 C 16,1 km/h (3 Bft) 91 %
05.02.2022 18:20 4,3 C 4,3 C 4,3 C 83 % 1023,3 hPa 0,0 l/m 4,2 km/h (1 Bft) W-SW 240 0 min 0,000 mm 0 W/m 1,7 C 4,3 C 17,7 km/h (3 Bft) 98 %
05.02.2022 18:30 4,3 C 4,3 C 4,3 C 83 % 1023,2 hPa 0,0 l/m 7,6 km/h (2 Bft) SW 232 0 min 0,000 mm 0 W/m 1,7 C 3,2 C 20,9 km/h (4 Bft) 98 %
05.02.2022 18:40 4,2 C 4,2 C 4,3 C 84 % 1023,2 hPa 0,0 l/m 6,1 km/h (2 Bft) SW 236 0 min 0,000 mm 0 W/m 1,7 C 4,2 C 16,1 km/h (3 Bft) 98 %
05.02.2022 18:50 4,0 C 4,0 C 4,2 C 84 % 1023,0 hPa 0,0 l/m 5,8 km/h (2 Bft) SW 216 0 min 0,000 mm 0 W/m 1,5 C 4,0 C 16,1 km/h (3 Bft) 99 %
05.02.2022 19:00 3,9 C 3,9 C 4,0 C 85 % 1023,1 hPa 0,0 l/m 8,8 km/h (2 Bft) SW 230 0 min 0,025 mm 0 W/m 1,6 C 1,8 C 24,1 km/h (4 Bft) 98 %
05.02.2022 19:10 3,9 C 3,9 C 3,9 C 85 % 1023,1 hPa 0,0 l/m 7,2 km/h (2 Bft) W-SW 244 0 min 0,000 mm 0 W/m 1,6 C 3,2 C 16,1 km/h (3 Bft) 98 %
05.02.2022 19:20 3,8 C 3,8 C 3,9 C 85 % 1023,0 hPa 0,0 l/m 9,3 km/h (2 Bft) S-SW 206 0 min 0,000 mm 0 W/m 1,5 C 1,3 C 19,3 km/h (3 Bft) 99 %
05.02.2022 19:30 3,7 C 3,7 C 3,8 C 85 % 1023,1 hPa 0,0 l/m 9,2 km/h (2 Bft) SW 218 0 min 0,000 mm 0 W/m 1,4 C 1,2 C 17,7 km/h (3 Bft) 99 %
05.02.2022 19:40 3,6 C 3,6 C 3,7 C 85 % 1023,1 hPa 0,0 l/m 8,0 km/h (2 Bft) SW 231 0 min 0,000 mm 0 W/m 1,3 C 2,1 C 22,5 km/h (4 Bft) 98 %
05.02.2022 19:50 3,7 C 3,6 C 3,7 C 85 % 1023,0 hPa 0,0 l/m 9,1 km/h (2 Bft) W-SW 242 0 min 0,000 mm 0 W/m 1,4 C 1,3 C 24,1 km/h (4 Bft) 99 %
05.02.2022 20:00 3,6 C 3,6 C 3,7 C 85 % 1023,0 hPa 0,0 l/m 8,9 km/h (2 Bft) S-SW 207 0 min 0,026 mm 0 W/m 1,3 C 1,4 C 22,5 km/h (4 Bft) 99 %
05.02.2022 20:10 3,6 C 3,6 C 3,6 C 85 % 1023,1 hPa 0,0 l/m 8,3 km/h (2 Bft) W-SW 250 0 min 0,000 mm 0 W/m 1,3 C 1,9 C 19,3 km/h (3 Bft) 99 %
05.02.2022 20:20 3,6 C 3,6 C 3,6 C 85 % 1023,1 hPa 0,0 l/m 10,1 km/h (2 Bft) SW 216 0 min 0,000 mm 0 W/m 1,3 C 0,5 C 24,1 km/h (4 Bft) 99 %
05.02.2022 20:30 3,6 C 3,5 C 3,6 C 86 % 1023,1 hPa 0,0 l/m 8,8 km/h (2 Bft) SW 227 0 min 0,000 mm 0 W/m 1,5 C 1,5 C 19,3 km/h (3 Bft) 98 %
05.02.2022 20:40 3,6 C 3,5 C 3,6 C 86 % 1023,1 hPa 0,0 l/m 9,4 km/h (2 Bft) SW 227 0 min 0,000 mm 0 W/m 1,5 C 1,0 C 22,5 km/h (4 Bft) 97 %
05.02.2022 20:50 3,5 C 3,5 C 3,6 C 86 % 1023,2 hPa 0,0 l/m 7,1 km/h (2 Bft) SW 228 0 min 0,000 mm 0 W/m 1,4 C 2,8 C 16,1 km/h (3 Bft) 97 %
05.02.2022 21:00 3,4 C 3,4 C 3,5 C 86 % 1023,1 hPa 0,0 l/m 8,2 km/h (2 Bft) SW 232 0 min 0,025 mm 0 W/m 1,3 C 1,7 C 22,5 km/h (4 Bft) 97 %
05.02.2022 21:10 3,5 C 3,4 C 3,5 C 85 % 1023,1 hPa 0,0 l/m 11,3 km/h (2 Bft) SW 225 0 min 0,000 mm 0 W/m 1,2 C -0,5 C 24,1 km/h (4 Bft) 100 %
05.02.2022 21:20 3,5 C 3,5 C 3,6 C 85 % 1023,1 hPa 0,0 l/m 8,0 km/h (2 Bft) W-SW 247 0 min 0,000 mm 0 W/m 1,2 C 2,0 C 20,9 km/h (4 Bft) 100 %
05.02.2022 21:30 3,6 C 3,5 C 3,6 C 84 % 1023,0 hPa 0,0 l/m 11,3 km/h (2 Bft) SW 225 0 min 0,000 mm 0 W/m 1,2 C -0,4 C 22,5 km/h (4 Bft) 100 %
05.02.2022 21:40 3,5 C 3,5 C 3,6 C 84 % 1022,9 hPa 0,0 l/m 9,7 km/h (2 Bft) SW 225 0 min 0,000 mm 0 W/m 1,1 C 0,6 C 24,1 km/h (4 Bft) 100 %
05.02.2022 21:50 3,6 C 3,5 C 3,6 C 84 % 1022,8 hPa 0,0 l/m 9,7 km/h (2 Bft) SW 225 0 min 0,000 mm 0 W/m 1,2 C 0,8 C 22,5 km/h (4 Bft) 100 %
05.02.2022 22:00 3,6 C 3,6 C 3,6 C 84 % 1022,7 hPa 0,0 l/m 12,9 km/h (3 Bft) SW 225 0 min 0,025 mm 0 W/m 1,2 C -1,4 C 27,4 km/h (4 Bft) 100 %
05.02.2022 22:10 3,6 C 3,6 C 3,6 C 84 % 1022,7 hPa 0,0 l/m 11,3 km/h (2 Bft) SW 225 0 min 0,000 mm 0 W/m 1,2 C -0,4 C 27,4 km/h (4 Bft) 100 %
05.02.2022 22:20 3,7 C 3,6 C 3,7 C 84 % 1022,5 hPa 0,0 l/m 12,9 km/h (3 Bft) SW 225 0 min 0,000 mm 0 W/m 1,3 C -1,3 C 27,4 km/h (4 Bft) 100 %
05.02.2022 22:30 3,8 C 3,7 C 3,8 C 84 % 1022,3 hPa 0,0 l/m 14,5 km/h (3 Bft) W-SW 247 0 min 0,000 mm 0 W/m 1,4 C -2,1 C 33,8 km/h (5 Bft) 100 %
05.02.2022 22:40 3,9 C 3,8 C 4,0 C 83 % 1022,2 hPa 0,0 l/m 12,9 km/h (3 Bft) W-SW 247 0 min 0,000 mm 0 W/m 1,3 C -1,1 C 33,8 km/h (5 Bft) 100 %
05.02.2022 22:50 4,0 C 3,9 C 4,0 C 83 % 1022,2 hPa 0,0 l/m 11,3 km/h (2 Bft) W-SW 247 0 min 0,000 mm 0 W/m 1,4 C 0,1 C 29,0 km/h (5 Bft) 100 %
05.02.2022 23:00 3,9 C 3,9 C 4,0 C 83 % 1022,2 hPa 0,0 l/m 14,5 km/h (3 Bft) W-SW 247 0 min 0,025 mm 0 W/m 1,3 C -2,0 C 30,6 km/h (5 Bft) 100 %
05.02.2022 23:10 4,1 C 4,0 C 4,1 C 82 % 1022,2 hPa 0,0 l/m 17,7 km/h (3 Bft) W-SW 247 0 min 0,000 mm 0 W/m 1,3 C -3,3 C 45,1 km/h (6 Bft) 100 %
05.02.2022 23:20 4,1 C 4,1 C 4,1 C 82 % 1022,1 hPa 0,0 l/m 14,5 km/h (3 Bft) W-SW 247 0 min 0,000 mm 0 W/m 1,3 C -1,7 C 32,2 km/h (5 Bft) 100 %
05.02.2022 23:30 4,1 C 4,1 C 4,1 C 82 % 1022,1 hPa 0,0 l/m 16,1 km/h (3 Bft) W-SW 247 0 min 0,000 mm 0 W/m 1,3 C -2,6 C 33,8 km/h (5 Bft) 100 %
05.02.2022 23:40 4,2 C 4,1 C 4,2 C 81 % 1022,0 hPa 0,0 l/m 19,3 km/h (3 Bft) W-SW 247 0 min 0,000 mm 0 W/m 1,2 C -3,9 C 40,2 km/h (6 Bft) 100 %
05.02.2022 23:50 4,3 C 4,2 C 4,3 C 81 % 1021,8 hPa 0,0 l/m 17,7 km/h (3 Bft) W-SW 247 0 min 0,000 mm 0 W/m 1,3 C -3,1 C 38,6 km/h (5 Bft) 100 %
_ Min-Zeit 05:10 05:10 05:20 15:00 00:00 - 11:00 - - - - - 05:10 08:00 02:00 01:30
Minimum _ 0,7 C 0,7 C 0,7 C 73 % 1016,5 hPa - 3,2 km/h (1 Bft) - - - - - -0,9 C -4,3 C 9,7 km/h (2 Bft) 86 %
_ Max-Zeit 15:10 15:10 15:10 08:00 11:50 00:00 23:40 - - 12:30 15:10 11:50 15:10 14:30 23:10 09:30
Maximum _ 6,8 C 6,7 C 6,8 C 92 % 1024,1 hPa 0,0 l/m 19,3 km/h
W-SW (3 Bft)
- - 20 min 0,152 mm 526 W/m 2,5 C 6,0 C 45,1 km/h
W-SW (6 Bft)
100 %
Durchschnitt _ 3,1 C 3,1 C 3,2 C 84 % 1022,0 hPa #0,0 l/m 9,0 km/h (2 Bft) SW - #4:10 h #0,812 mm 165 W/m 0,7 C 0,9 C 21,9 km/h (4 Bft) 98 %
PRIVATE WETTERSTATION BILLIGHEIM-ALLFELD - www.neckar-odenwald-wetter.de - Holger Sonntag